Tokyo, Japan
Current Conditions -  °F | °C
As of 3:00 PM on Sunday 21 Dec 2014 (Local Time) from RJTT Reporting Station
Broken Clouds Broken Clouds  
Wind Chill: 11°   Ceiling: Unl
Heat Index: 11°   Visibility: 6mi
Dew Point:   Wind: 6mph
Humidity: 50%   Direction: 60°ENE
Pressure: 29.74"   Gusts: NA
Location:  35.67°N, 139.77°E
Report Text: RJTT 210600Z 06005KT 9999 FEW030 BKN/// 11/01 Q1007 NOSIG RMK 1CU030 A2975
Loading
Personal Weather Stations






























Interactive Weather Map New forecast layout! Learn more

10-Day Weather Forecast

Advertisements
Track Severe Weather on mobile